Terminal Aerodrome Forecast
Issued by NWS Indianapolis, IN

Home | Current Version | Previous Version | Text Only | Print | Product List | Glossary On
Versions: 1 2 3 4 5 6 7 8 9 10 11 12 13 14 15 16 17 18 19 20 21 22 23 24 25
000
FTUS43 KIND 251700
TAFIND
TAF
KIND 251720Z 2518/2624 09011KT 3SM -RA BR VCTS OVC009CB
     FM251900 07014KT 5SM BR VCSH OVC007
     FM260400 04015KT P6SM OVC015
     FM260800 02011KT P6SM SCT020
     FM261300 03012KT P6SM SCT250=

USA.gov is the U.S. government's official web portal to all federal, state and local government web resources and services.